Time;durP1;ratioP1;P1;durP2;ratioP2;P2;SDS_P1;SDS_P2;PMS_P1;PMS_P2;Temp;Humidity;BMP_temperature;BMP_pressure;BME280_temperature;BME280_humidity;BME280_pressure;Samples;Min_cycle;Max_cycle;Signal;HPM_P1;HPM_P2
2023/07/29 00:01:55;;;;;;;7.97;4.95;;;18.60;99.90;;;-144.05;98.68;56995.38;6124636;23;20006;-89
2023/07/29 00:04:21;;;;;;;7.82;4.43;;;18.60;99.90;;;-144.05;98.46;57014.50;6125475;23;20009;-88
2023/07/29 00:06:46;;;;;;;6.70;4.25;;;18.60;99.90;;;-144.05;98.20;57016.63;6125512;23;20341;-88
2023/07/29 00:09:12;;;;;;;5.97;4.45;;;18.60;99.90;;;-144.05;98.24;57023.00;6124189;23;20348;-88
2023/07/29 00:11:38;;;;;;;5.57;4.40;;;18.60;99.90;;;-144.05;98.35;57025.13;6124221;23;20010;-87
2023/07/29 00:14:04;;;;;;;6.13;4.97;;;18.60;99.90;;;-144.05;98.79;56980.53;6124112;23;20014;-88
2023/07/29 00:16:30;;;;;;;4.93;4.40;;;18.60;99.90;;;-144.05;99.65;56999.63;6124230;23;20010;-89
2023/07/29 00:18:56;;;;;;;6.70;4.82;;;18.60;99.90;;;-144.05;100.00;57001.75;6125318;23;20425;-88
2023/07/29 00:21:22;;;;;;;4.57;3.97;;;18.60;99.90;;;-144.05;99.60;57001.75;6124456;23;20351;-88
2023/07/29 00:23:49;;;;;;;5.05;4.47;;;18.60;99.90;;;-144.05;99.42;56989.00;6124684;23;20089;-87
2023/07/29 00:26:14;;;;;;;5.32;4.75;;;18.60;99.90;;;-144.05;99.32;57014.50;6124707;23;20421;-87
2023/07/29 00:28:44;;;;;;;7.93;4.65;;;18.60;99.90;;;-144.05;99.84;56957.16;6124558;23;20017;-88
2023/07/29 00:31:10;;;;;;;5.68;3.83;;;18.60;99.90;;;-144.05;99.83;57025.13;6130206;23;20032;-87
2023/07/29 00:33:36;;;;;;;4.72;3.38;;;18.60;99.90;;;-144.05;99.37;57014.50;6155748;23;20020;-89
2023/07/29 00:36:03;;;;;;;6.78;3.47;;;18.60;99.90;;;-144.05;99.77;57016.63;6133825;23;20117;-86
2023/07/29 00:38:29;;;;;;;4.07;3.67;;;18.50;99.90;;;-144.05;99.68;57008.13;6133110;23;20009;-87
2023/07/29 00:40:58;;;;;;;4.10;3.70;;;18.50;99.90;;;-144.05;99.31;56991.13;6130795;23;20014;-88
2023/07/29 00:43:24;;;;;;;4.32;3.58;;;18.50;99.90;;;-144.05;99.29;57014.50;6131079;23;20016;-85
2023/07/29 00:45:50;;;;;;;4.97;3.88;;;18.50;99.90;;;-144.05;99.34;57006.00;6139982;23;20005;-87
2023/07/29 00:48:17;;;;;;;4.57;3.90;;;18.40;99.90;;;-144.05;99.09;57031.50;6148378;23;20010;-85
2023/07/29 00:50:43;;;;;;;4.55;3.90;;;18.40;99.90;;;-144.05;99.07;57016.63;6131460;23;20017;-86
2023/07/29 00:53:09;;;;;;;4.43;4.03;;;18.30;99.90;;;-144.05;99.29;56993.25;6128546;23;20460;-87
2023/07/29 00:55:35;;;;;;;5.85;4.32;;;18.30;99.90;;;-144.05;99.42;56991.13;6126218;23;19998;-86
2023/07/29 00:58:01;;;;;;;4.53;4.13;;;18.40;99.90;;;-144.05;99.35;56978.41;6125979;23;20010;-85
2023/07/29 01:00:27;;;;;;;5.00;4.50;;;18.30;99.90;;;-144.05;99.47;57001.75;6125835;23;20060;-87
2023/07/29 01:02:54;;;;;;;4.57;4.18;;;18.30;99.90;;;-144.05;99.58;56995.38;6126004;23;20487;-87
2023/07/29 01:05:21;;;;;;;4.65;4.20;;;18.30;99.90;;;-144.05;99.46;56984.78;6125638;23;20016;-86
2023/07/29 01:08:15;;;;;;;5.97;3.97;;;18.30;99.90;;;-144.05;99.44;57012.38;6125513;23;20014;-86
2023/07/29 01:11:17;;;;;;;4.55;3.75;;;18.30;99.90;;;-144.05;99.27;57018.75;6125972;23;20010;-86
2023/07/29 01:14:05;;;;;;;4.07;3.42;;;18.30;99.90;;;-144.05;99.04;57014.50;6125289;23;20085;-86
2023/07/29 01:16:45;;;;;;;3.70;3.40;;;18.30;99.90;;;-144.05;98.89;56999.63;6127826;23;20010;-86
2023/07/29 01:19:49;;;;;;;3.55;3.25;;;18.30;99.90;;;-144.05;98.86;57006.00;6125061;23;20061;-87
2023/07/29 01:22:17;;;;;;;3.58;3.28;;;18.30;99.90;;;-144.05;98.79;56984.78;6125087;23;20001;-85
2023/07/29 01:24:43;;;;;;;5.13;3.30;;;18.30;99.90;;;-144.05;98.89;56995.38;6125302;23;20010;-85
2023/07/29 01:27:09;;;;;;;3.65;2.92;;;18.20;99.90;;;-144.05;98.88;57003.88;6126130;23;20306;-85
2023/07/29 01:29:35;;;;;;;3.35;3.05;;;18.20;99.90;;;-144.05;98.75;56993.25;6125216;23;20010;-85
2023/07/29 01:32:27;;;;;;;3.95;3.65;;;18.20;99.90;;;-144.05;98.76;57023.00;6125033;23;20013;-86
2023/07/29 01:35:17;;;;;;;4.40;3.85;;;18.20;99.90;;;-144.05;99.10;57008.13;6125001;23;20006;-88
2023/07/29 01:37:54;;;;;;;5.40;3.42;;;18.10;99.90;;;-144.05;99.10;57018.75;6125255;23;20018;-86
2023/07/29 01:40:29;;;;;;;4.40;4.00;;;18.20;99.90;;;-144.05;99.33;57027.25;6124935;23;20014;-86
2023/07/29 01:42:56;;;;;;;4.32;3.38;;;18.10;99.90;;;-144.05;98.76;56999.63;6124938;23;20013;-86
2023/07/29 01:45:26;;;;;;;3.40;3.10;;;18.10;99.90;;;-144.05;98.96;57025.13;6125248;23;20089;-86
2023/07/29 01:47:52;;;;;;;3.85;3.55;;;18.10;99.90;;;-144.05;99.08;56982.66;6124925;23;20010;-86
2023/07/29 01:50:18;;;;;;;4.40;3.47;;;18.10;99.90;;;-144.05;99.23;57003.88;6125314;23;20396;-85
2023/07/29 01:52:44;;;;;;;6.55;3.70;;;18.10;99.90;;;-144.05;99.31;57006.00;6124827;23;20088;-86
2023/07/29 01:55:10;;;;;;;3.90;3.05;;;18.10;99.90;;;-144.05;99.33;57008.13;6124870;23;20093;-86
2023/07/29 01:57:36;;;;;;;4.93;3.33;;;18.10;99.90;;;-144.05;99.47;57006.00;6125180;23;20410;-86
2023/07/29 02:00:03;;;;;;;6.00;3.33;;;18.00;99.90;;;-144.05;99.29;57001.75;6124847;23;20096;-86
2023/07/29 02:02:29;;;;;;;5.47;2.95;;;18.00;99.90;;;-144.05;99.23;56995.38;6124832;23;20337;-85
2023/07/29 02:04:55;;;;;;;3.75;3.45;;;18.00;99.90;;;-144.05;99.49;57016.63;6125333;23;20069;-87
2023/07/29 02:07:22;;;;;;;4.82;3.53;;;18.00;99.90;;;-144.05;99.70;57010.25;6124849;23;20093;-86
2023/07/29 02:09:48;;;;;;;4.50;4.00;;;17.90;99.90;;;-144.05;99.74;57014.50;6125037;23;20006;-86
2023/07/29 02:12:14;;;;;;;7.47;3.83;;;17.90;99.90;;;-144.05;99.55;56989.00;6124849;23;20026;-87
2023/07/29 02:14:40;;;;;;;5.40;3.55;;;17.90;99.90;;;-144.05;99.54;57012.38;6124860;23;20309;-85
2023/07/29 02:17:06;;;;;;;5.97;3.13;;;17.90;99.90;;;-144.05;99.40;56959.28;6124798;23;20067;-86
2023/07/29 02:19:31;;;;;;;4.60;3.00;;;17.90;99.90;;;-144.05;99.13;56995.38;6124399;23;20018;-85
2023/07/29 02:21:57;;;;;;;3.20;2.90;;;17.90;99.90;;;-144.05;99.19;56982.66;6124713;23;20010;-86
2023/07/29 02:24:23;;;;;;;8.75;3.67;;;17.90;99.90;;;-144.05;99.22;57010.25;6124650;23;20451;-86
2023/07/29 02:26:49;;;;;;;5.85;3.28;;;17.90;99.90;;;-144.05;99.80;57001.75;6124523;23;20165;-86
2023/07/29 02:29:15;;;;;;;6.53;3.50;;;17.90;99.90;;;-144.05;99.78;56993.25;6124416;23;20016;-85
2023/07/29 02:31:41;;;;;;;6.55;3.30;;;17.90;99.90;;;-144.05;99.67;57031.50;6124393;23;20013;-85
2023/07/29 02:34:07;;;;;;;3.78;3.38;;;17.90;99.90;;;-144.05;99.52;56982.66;6124555;23;20042;-87
2023/07/29 02:36:33;;;;;;;4.40;2.83;;;18.00;99.90;;;-144.05;99.26;56989.00;6124470;23;20017;-88
2023/07/29 02:38:59;;;;;;;3.33;2.92;;;17.90;99.90;;;-144.05;99.24;56993.25;6137205;23;20020;-88
2023/07/29 02:41:24;;;;;;;4.68;3.10;;;17.90;99.90;;;-144.05;99.47;56984.78;6143015;23;20451;-88
2023/07/29 02:43:51;;;;;;;4.00;3.13;;;17.90;99.90;;;-144.05;99.35;57006.00;6127363;23;20012;-89
2023/07/29 02:46:18;;;;;;;3.40;3.10;;;17.90;99.90;;;-144.05;99.24;57001.75;6124884;23;19998;-86
2023/07/29 02:48:45;;;;;;;5.60;3.58;;;17.90;99.90;;;-144.05;99.43;57023.00;6124389;23;20010;-86
2023/07/29 02:51:11;;;;;;;4.40;3.03;;;17.80;99.90;;;-144.05;99.51;56976.28;6124860;23;20009;-86
2023/07/29 02:53:37;;;;;;;6.65;3.05;;;17.90;99.90;;;-144.05;99.44;57006.00;6124166;23;20069;-86
2023/07/29 02:56:08;;;;;;;4.65;3.00;;;17.90;99.90;;;-144.05;99.40;56976.28;6124183;23;20022;-87
2023/07/29 02:58:36;;;;;;;5.38;2.97;;;17.90;99.90;;;-144.05;99.21;56997.50;6123824;23;20002;-88
2023/07/29 03:01:05;;;;;;;4.65;2.97;;;17.90;99.90;;;-144.05;100.00;56999.63;6123967;23;20529;-86
2023/07/29 03:03:32;;;;;;;5.35;3.08;;;17.90;99.90;;;-144.05;100.00;57020.88;6124349;23;20010;-86
2023/07/29 03:06:12;;;;;;;5.18;3.10;;;17.90;99.90;;;-144.05;100.00;56984.78;6124348;23;20092;-86
2023/07/29 03:08:39;;;;;;;9.40;4.03;;;17.90;99.90;;;-144.05;99.99;56999.63;6127056;23;20059;-87
2023/07/29 03:11:12;;;;;;;6.55;3.22;;;18.00;99.90;;;-144.05;99.78;56997.50;6127499;23;20016;-87
2023/07/29 03:13:38;;;;;;;5.05;3.30;;;17.90;99.90;;;-144.05;99.92;56974.16;6127143;23;20014;-88
2023/07/29 03:16:15;;;;;;;5.22;3.45;;;18.00;99.90;;;-144.05;100.00;57008.13;6126976;23;20491;-85
2023/07/29 03:18:42;;;;;;;6.68;3.40;;;17.90;99.90;;;-144.05;100.00;56993.25;6127945;23;20014;-85
2023/07/29 03:21:09;;;;;;;5.28;3.50;;;17.90;99.90;;;-144.05;100.00;56997.50;6127552;23;20069;-86
2023/07/29 03:23:37;;;;;;;5.30;3.60;;;17.90;99.90;;;-144.05;100.00;56993.25;6127103;23;20002;-85
2023/07/29 03:26:09;;;;;;;6.22;3.47;;;17.90;99.90;;;-144.05;100.00;57006.00;6127227;23;20014;-85
2023/07/29 03:28:42;;;;;;;5.25;3.70;;;18.00;99.90;;;-144.05;100.00;57023.00;6128087;23;20006;-85
2023/07/29 03:31:09;;;;;;;12.02;3.85;;;18.00;99.90;;;-144.05;99.80;57014.50;6125238;23;20046;-86
2023/07/29 03:33:35;;;;;;;4.63;4.22;;;18.00;99.90;;;-144.05;100.00;57001.75;6148411;23;20016;-85
2023/07/29 03:36:02;;;;;;;5.18;4.13;;;18.00;99.90;;;-144.05;100.00;57020.88;6123952;23;20013;-86
2023/07/29 03:38:27;;;;;;;7.25;4.47;;;18.00;99.90;;;-144.05;100.00;56997.50;6124018;23;20417;-86
2023/07/29 03:40:53;;;;;;;5.03;4.18;;;18.00;99.90;;;-144.05;100.00;57020.88;6123841;23;20072;-87
2023/07/29 03:43:20;;;;;;;4.72;4.25;;;18.00;99.90;;;-144.05;100.00;57010.25;6123788;23;20017;-88
2023/07/29 03:45:46;;;;;;;4.55;3.85;;;18.00;99.90;;;-144.05;100.00;57003.88;6124332;23;20013;-87
2023/07/29 03:48:12;;;;;;;5.63;4.68;;;18.10;99.90;;;-144.05;100.00;56984.78;6124222;23;20020;-87
2023/07/29 03:50:39;;;;;;;9.05;4.53;;;18.00;99.90;;;-144.05;100.00;56967.78;6123764;23;20037;-87
2023/07/29 03:53:05;;;;;;;7.20;4.45;;;18.00;99.90;;;-144.05;100.00;57014.50;6133126;23;20018;-86
2023/07/29 03:55:32;;;;;;;4.72;4.00;;;18.10;99.90;;;-144.05;100.00;56982.66;6152069;23;20020;-85
2023/07/29 03:58:00;;;;;;;7.28;4.32;;;18.10;99.90;;;-144.05;100.00;57014.50;6128733;23;20014;-86
2023/07/29 04:00:27;;;;;;;6.43;4.25;;;18.10;99.90;;;-144.05;99.74;56989.00;6125087;23;20010;-86
2023/07/29 04:02:54;;;;;;;7.18;4.50;;;18.10;99.90;;;-144.05;99.56;57006.00;6123843;23;20010;-86
2023/07/29 04:05:20;;;;;;;4.65;4.13;;;18.10;99.90;;;-144.05;99.45;57018.75;6124102;23;20013;-88
2023/07/29 04:07:46;;;;;;;8.10;4.70;;;18.10;99.90;;;-144.05;99.45;57014.50;6123890;23;20010;-86
2023/07/29 04:10:13;;;;;;;9.88;4.80;;;18.10;99.90;;;-144.05;99.63;56999.63;6123264;23;20033;-87
2023/07/29 04:12:39;;;;;;;9.30;5.03;;;18.00;99.90;;;-144.05;100.00;56980.53;6123611;23;20263;-87
2023/07/29 04:15:07;;;;;;;5.05;4.32;;;18.10;99.90;;;-144.05;100.00;57012.38;6124622;23;20092;-87
2023/07/29 04:17:33;;;;;;;6.80;5.03;;;18.10;99.90;;;-144.05;100.00;57003.88;6124256;23;20013;-87
2023/07/29 04:19:58;;;;;;;8.32;4.50;;;18.10;99.90;;;-144.05;100.00;57010.25;6124004;23;20500;-85
2023/07/29 04:22:24;;;;;;;4.40;3.78;;;18.10;99.90;;;-144.05;99.52;57027.25;6123551;23;20049;-86
2023/07/29 04:24:50;;;;;;;11.00;5.05;;;18.10;99.90;;;-144.05;99.49;57018.75;6123469;23;20010;-87
2023/07/29 04:27:16;;;;;;;5.00;4.15;;;18.20;99.90;;;-144.05;100.00;56986.91;6123693;23;20098;-87
2023/07/29 04:29:42;;;;;;;8.60;4.38;;;18.20;99.90;;;-144.05;99.90;56986.91;6123845;23;20014;-87
2023/07/29 04:32:08;;;;;;;4.93;4.13;;;18.20;99.90;;;-144.05;100.00;56993.25;6132075;23;19997;-87
2023/07/29 04:34:34;;;;;;;7.57;4.15;;;18.20;99.90;;;-144.05;100.00;56984.78;6146866;23;20010;-87
2023/07/29 04:37:00;;;;;;;5.05;4.55;;;18.30;99.90;;;-144.05;100.00;57010.25;6149145;23;20097;-87
2023/07/29 04:39:26;;;;;;;7.40;4.72;;;18.30;99.90;;;-144.05;100.00;57006.00;6123326;23;20010;-87
2023/07/29 04:41:52;;;;;;;5.25;4.72;;;18.30;99.90;;;-144.05;100.00;57001.75;6123428;23;20014;-85
2023/07/29 04:44:18;;;;;;;13.20;5.07;;;18.30;99.90;;;-144.05;99.78;57014.50;6123793;23;20507;-86
2023/07/29 04:46:44;;;;;;;6.43;4.22;;;18.30;99.90;;;-144.05;99.60;57001.75;6124116;23;20013;-86
2023/07/29 04:49:10;;;;;;;6.80;4.45;;;18.30;99.90;;;-144.05;99.50;56986.91;6123988;23;20437;-88
2023/07/29 04:51:37;;;;;;;13.25;5.18;;;18.40;99.90;;;-144.05;99.96;57018.75;6123982;23;20013;-88
2023/07/29 04:54:03;;;;;;;6.65;4.75;;;18.40;99.90;;;-144.05;100.00;57012.38;6124099;23;20002;-86
2023/07/29 04:56:29;;;;;;;4.95;4.43;;;18.30;99.90;;;-144.05;99.98;57010.25;6124353;23;20070;-87
2023/07/29 04:58:55;;;;;;;6.20;4.45;;;18.40;99.90;;;-144.05;99.73;57023.00;6123848;23;20409;-87
2023/07/29 05:01:20;;;;;;;6.00;5.00;;;18.40;99.90;;;-144.05;99.88;57020.88;6124457;23;20036;-87
2023/07/29 05:03:46;;;;;;;6.10;5.15;;;18.40;99.90;;;-144.05;99.96;57025.13;6124454;23;20318;-87
2023/07/29 05:06:12;;;;;;;5.95;5.32;;;18.40;99.90;;;-144.05;99.85;56991.13;6124746;23;20010;-87
2023/07/29 05:08:38;;;;;;;9.70;6.63;;;18.50;99.90;;;-144.05;99.99;57012.38;6123767;23;20128;-87
2023/07/29 05:11:04;;;;;;;6.53;5.75;;;18.40;99.90;;;-144.05;99.35;56997.50;6123485;23;20114;-87
2023/07/29 05:13:30;;;;;;;8.30;7.15;;;18.50;99.90;;;-144.05;99.93;56997.50;6125155;23;20145;-87
2023/07/29 05:15:56;;;;;;;8.15;7.03;;;18.50;99.90;;;-144.05;99.70;57010.25;6123568;23;20010;-87
2023/07/29 05:18:23;;;;;;;10.02;7.40;;;18.40;99.90;;;-144.05;98.85;57008.13;6123253;23;20397;-86
2023/07/29 05:20:49;;;;;;;9.82;7.38;;;18.50;99.90;;;-144.05;98.96;57001.75;6124230;23;20065;-87
2023/07/29 05:23:15;;;;;;;9.27;7.55;;;18.40;99.90;;;-144.05;98.64;57031.50;6125217;23;20397;-87
2023/07/29 05:25:41;;;;;;;8.85;7.15;;;18.40;99.90;;;-144.05;98.45;57008.13;6126067;23;20029;-86
2023/07/29 05:28:07;;;;;;;9.45;7.25;;;18.50;99.90;;;-144.05;98.91;56999.63;6125369;23;20491;-86
2023/07/29 05:30:37;;;;;;;8.18;7.38;;;18.40;99.90;;;-144.05;98.65;57012.38;6125384;23;20010;-87
2023/07/29 05:33:07;;;;;;;7.28;6.47;;;18.50;99.90;;;-144.05;98.23;57006.00;6125225;23;20005;-84
2023/07/29 05:35:33;;;;;;;10.35;8.07;;;18.50;99.90;;;-144.05;97.60;57016.63;6125548;23;20013;-85
2023/07/29 05:37:59;;;;;;;9.75;7.35;;;18.40;99.90;;;-144.05;97.17;57018.75;6125151;23;20424;-86
2023/07/29 05:40:25;;;;;;;9.65;7.22;;;18.50;99.90;;;-144.05;96.90;56986.91;6124994;23;20021;-85
2023/07/29 05:42:51;;;;;;;11.07;8.18;;;18.50;99.90;;;-144.05;96.64;57010.25;6125519;23;20475;-84
2023/07/29 05:45:17;;;;;;;9.15;7.82;;;18.50;99.90;;;-144.05;96.03;56993.25;6125202;23;20037;-87
2023/07/29 05:47:43;;;;;;;9.63;7.60;;;18.60;99.90;;;-144.05;95.79;57012.38;6125020;23;20041;-86
2023/07/29 05:50:09;;;;;;;11.05;7.03;;;18.70;99.90;;;-144.05;95.30;57012.38;6124896;23;20016;-84
2023/07/29 05:52:35;;;;;;;7.13;6.07;;;18.80;99.90;;;-144.05;95.15;57025.13;6124892;23;20029;-87
2023/07/29 05:55:01;;;;;;;9.13;6.60;;;18.90;99.90;;;-144.05;94.65;57016.63;6125085;23;20006;-86
2023/07/29 05:57:29;;;;;;;9.88;7.55;;;19.00;99.90;;;-144.05;93.73;56976.28;6149791;23;20459;-86
2023/07/29 05:59:55;;;;;;;8.52;7.65;;;18.90;99.90;;;-144.05;93.44;57003.88;6124827;23;20013;-86
2023/07/29 06:02:21;;;;;;;10.18;7.60;;;18.90;99.90;;;-144.05;93.00;57020.88;6125051;23;20002;-86
2023/07/29 06:04:46;;;;;;;8.63;7.55;;;18.80;99.90;;;-144.05;93.03;57012.38;6124900;23;20034;-86
2023/07/29 06:07:12;;;;;;;9.23;7.53;;;18.80;99.90;;;-144.05;92.72;57010.25;6124938;23;20041;-85
2023/07/29 06:09:40;;;;;;;9.32;8.40;;;18.80;99.90;;;-144.05;92.80;57003.88;6125147;23;20010;-87
2023/07/29 06:12:07;;;;;;;9.98;8.57;;;18.70;99.90;;;-144.05;92.45;57016.63;6124758;23;20452;-86
2023/07/29 06:14:32;;;;;;;10.27;9.27;;;18.70;99.90;;;-144.05;92.47;57014.50;6124657;23;20020;-86
2023/07/29 06:16:58;;;;;;;10.70;9.15;;;18.70;99.90;;;-144.05;92.13;57025.13;6124883;23;20010;-86
2023/07/29 06:19:24;;;;;;;10.90;8.70;;;18.80;99.90;;;-144.05;91.68;57010.25;6149237;23;20010;-86
2023/07/29 06:21:50;;;;;;;11.40;9.50;;;18.70;99.90;;;-144.05;91.85;57014.50;6124817;23;20349;-86
2023/07/29 06:24:16;;;;;;;10.40;9.32;;;18.70;99.90;;;-144.05;91.58;57016.63;6125785;23;20012;-87
2023/07/29 06:26:42;;;;;;;15.77;11.15;;;18.70;99.90;;;-144.05;91.81;56984.78;6145604;23;20006;-87
2023/07/29 06:29:08;;;;;;;12.95;10.63;;;18.70;99.90;;;-144.05;91.60;56999.63;6134712;23;20014;-87
2023/07/29 06:31:34;;;;;;;13.70;10.20;;;18.70;99.90;;;-144.05;91.58;57027.25;6124629;23;20025;-86
2023/07/29 06:34:00;;;;;;;14.95;12.05;;;18.70;99.90;;;-144.05;91.51;56995.38;6124890;23;20097;-86
2023/07/29 06:36:27;;;;;;;12.88;10.60;;;18.70;99.90;;;-144.05;91.27;57008.13;6125573;23;20041;-86
2023/07/29 06:38:53;;;;;;;12.57;11.27;;;18.70;99.90;;;-144.05;91.18;57003.88;6125114;23;20341;-86
2023/07/29 06:41:19;;;;;;;13.27;11.70;;;18.70;99.90;;;-144.05;90.75;57014.50;6127901;23;20014;-85
2023/07/29 06:43:45;;;;;;;11.82;9.50;;;18.80;99.90;;;-144.05;89.94;57014.50;6126352;23;20005;-86
2023/07/29 06:46:11;;;;;;;9.95;7.63;;;18.70;99.90;;;-144.05;86.74;56989.00;6125860;23;20017;-86
2023/07/29 06:48:37;;;;;;;7.57;6.28;;;18.70;99.90;;;-144.05;85.75;57010.25;6150927;23;20392;-87
2023/07/29 06:51:04;;;;;;;7.68;4.75;;;18.60;99.90;;;-144.05;83.57;57001.75;6126317;23;20100;-87
2023/07/29 06:53:30;;;;;;;4.93;3.78;;;18.60;99.90;;;-144.05;81.16;57023.00;6126022;23;20056;-85
2023/07/29 06:55:56;;;;;;;6.13;3.22;;;18.50;99.90;;;-144.05;81.68;57003.88;6125981;23;20005;-86
2023/07/29 06:58:22;;;;;;;4.13;2.92;;;18.50;99.90;;;-144.05;81.63;57031.50;6125315;23;20085;-85
2023/07/29 07:00:48;;;;;;;4.10;2.90;;;18.60;99.90;;;-144.05;81.20;57018.75;6127222;23;20016;-87
2023/07/29 07:03:14;;;;;;;4.32;3.03;;;18.60;99.90;;;-144.05;80.90;57035.75;6124702;23;20081;-85
2023/07/29 07:05:40;;;;;;;6.53;3.03;;;18.70;99.90;;;-144.05;80.50;57020.88;6149701;23;20452;-85
2023/07/29 07:08:06;;;;;;;3.83;3.22;;;18.60;99.90;;;-144.05;80.54;57006.00;6124487;23;20010;-85
2023/07/29 07:10:33;;;;;;;6.43;3.08;;;18.60;99.90;;;-144.05;81.08;57001.75;6124903;23;20017;-86
2023/07/29 07:12:59;;;;;;;5.68;3.30;;;18.60;99.90;;;-144.05;80.32;57031.50;6124112;23;20037;-85
2023/07/29 07:15:25;;;;;;;4.25;3.05;;;18.60;99.90;;;-144.05;79.69;57018.75;6124755;23;20537;-84
2023/07/29 07:17:52;;;;;;;3.65;2.67;;;18.60;99.90;;;-144.05;79.47;56997.50;6124334;23;20016;-86
2023/07/29 07:20:18;;;;;;;6.03;2.65;;;18.70;99.90;;;-144.05;78.87;57023.00;6124513;23;20010;-86
2023/07/29 07:22:44;;;;;;;4.28;2.17;;;18.70;99.90;;;-144.05;78.63;57001.75;6124243;23;20089;-86
2023/07/29 07:25:10;;;;;;;3.67;2.00;;;18.70;99.90;;;-144.05;77.30;57020.88;6124690;23;20009;-85
2023/07/29 07:27:37;;;;;;;4.70;2.38;;;18.70;99.90;;;-144.05;77.03;57018.75;6125753;23;20006;-86
2023/07/29 07:30:04;;;;;;;2.50;1.70;;;18.90;99.90;;;-144.05;77.86;56999.63;6125576;23;20010;-86
2023/07/29 07:32:30;;;;;;;2.88;1.80;;;18.90;99.90;;;-144.05;74.98;57001.75;6125988;23;20065;-85
2023/07/29 07:34:56;;;;;;;3.50;1.90;;;19.00;99.90;;;-144.05;74.70;57023.00;6132020;23;20017;-86
2023/07/29 07:37:21;;;;;;;2.53;1.80;;;19.40;99.90;;;-144.05;72.22;57014.50;6124819;23;20010;-85
2023/07/29 07:39:47;;;;;;;3.17;1.80;;;19.80;99.90;;;-144.05;70.31;57025.13;6128354;23;20429;-85
2023/07/29 07:42:13;;;;;;;3.85;1.90;;;20.10;99.90;;;-144.05;70.29;57035.75;6130809;23;20438;-86
2023/07/29 07:44:39;;;;;;;2.97;1.80;;;20.40;99.90;;;-144.05;68.77;57048.50;6130248;23;20362;-87
2023/07/29 07:47:05;;;;;;;3.70;1.95;;;20.50;99.90;;;-144.05;68.49;57046.38;6151240;23;20040;-86
2023/07/29 07:49:32;;;;;;;2.38;1.50;;;20.80;99.90;;;-144.05;67.96;57048.50;6148148;23;20044;-85
2023/07/29 07:51:58;;;;;;;5.40;1.80;;;21.40;99.90;;;-144.05;64.63;57056.97;6130698;23;20005;-85
2023/07/29 07:54:24;;;;;;;2.80;1.60;;;21.80;99.90;;;-144.05;60.28;57065.47;6131433;23;20020;-85
2023/07/29 07:56:49;;;;;;;4.25;1.60;;;22.10;99.90;;;-144.05;60.97;57082.47;6131181;23;20032;-85
2023/07/29 07:59:15;;;;;;;2.60;1.42;;;22.30;99.90;;;-144.05;61.37;57095.22;6130518;23;20443;-84
2023/07/29 08:01:41;;;;;;;2.60;1.45;;;22.00;99.90;;;-144.05;60.37;57054.88;6133058;23;20412;-84
2023/07/29 08:04:07;;;;;;;3.38;1.80;;;22.20;99.90;;;-144.05;59.10;57084.59;6132723;23;20012;-86
2023/07/29 08:06:33;;;;;;;3.13;1.60;;;22.50;99.90;;;-144.05;58.87;57061.22;6137857;23;20033;-85
2023/07/29 08:09:00;;;;;;;1.50;1.40;;;22.30;99.90;;;-144.05;58.71;57054.88;6135817;23;20010;-85
2023/07/29 08:11:26;;;;;;;5.70;1.52;;;22.70;99.90;;;-144.05;58.99;57063.34;6137682;23;20020;-85
2023/07/29 08:13:52;;;;;;;3.45;1.50;;;22.60;99.90;;;-144.05;58.73;57052.75;6142386;23;20093;-86
2023/07/29 08:16:18;;;;;;;2.75;1.50;;;22.20;99.90;;;-144.05;60.40;57069.72;6131546;23;20009;-85
2023/07/29 08:18:45;;;;;;;3.60;1.60;;;21.80;99.90;;;-144.05;59.94;57067.59;6147098;23;20001;-84
2023/07/29 08:21:10;;;;;;;1.83;1.25;;;21.70;99.90;;;-144.05;59.90;57042.13;6146446;23;20064;-86
2023/07/29 08:23:36;;;;;;;3.03;1.65;;;21.40;99.90;;;-144.05;61.71;57029.38;6131850;23;20005;-86
2023/07/29 08:26:06;;;;;;;2.67;1.75;;;21.10;99.90;;;-144.05;63.83;57042.13;6131087;23;20029;-85
2023/07/29 08:28:38;;;;;;;6.13;1.40;;;21.20;99.90;;;-144.05;62.16;57033.63;6130136;23;20009;-85
2023/07/29 08:31:06;;;;;;;2.15;1.30;;;21.80;99.90;;;-144.05;61.43;57048.50;6129675;23;20423;-85
2023/07/29 08:33:33;;;;;;;1.27;1.10;;;22.30;99.90;;;-144.05;58.75;57059.09;6131510;23;20017;-86
2023/07/29 08:35:59;;;;;;;3.33;1.30;;;22.50;99.90;;;-144.05;58.68;57071.84;6131338;23;20009;-86
2023/07/29 08:38:26;;;;;;;1.38;1.08;;;22.30;99.90;;;-144.05;57.61;57073.97;6130576;23;20010;-86
2023/07/29 08:41:27;;;;;;;1.73;1.23;;;22.80;99.90;;;-144.05;58.14;57095.22;6127214;23;20433;-87
2023/07/29 08:44:12;;;;;;;1.50;1.27;;;22.90;99.90;;;-144.05;57.08;57069.72;6125906;23;20093;-84
2023/07/29 08:46:40;;;;;;;1.65;1.00;;;22.80;99.90;;;-144.05;57.24;57099.47;6124891;23;20017;-86
2023/07/29 08:49:07;;;;;;;2.10;1.00;;;22.80;99.90;;;-144.05;57.00;57050.63;6126005;23;20037;-83
2023/07/29 08:51:36;;;;;;;2.38;1.60;;;22.60;99.90;;;-144.05;57.82;57086.72;6125712;23;20400;-85
2023/07/29 08:54:02;;;;;;;1.85;1.50;;;22.80;99.90;;;-144.05;56.21;57078.22;6129288;23;20113;-85
2023/07/29 08:56:30;;;;;;;2.83;1.65;;;23.00;99.90;;;-144.05;55.60;57103.72;6133652;23;20045;-85
2023/07/29 08:58:57;;;;;;;2.80;1.85;;;23.10;99.90;;;-144.05;55.80;57063.34;6131025;23;20002;-84
2023/07/29 09:01:25;;;;;;;1.90;1.65;;;23.00;99.90;;;-144.05;56.12;57090.97;6136968;23;20016;-84
2023/07/29 09:03:52;;;;;;;4.00;1.73;;;22.80;99.90;;;-144.05;57.22;57067.59;6141067;23;20070;-84
2023/07/29 09:06:21;;;;;;;2.00;1.80;;;22.70;99.90;;;-144.05;56.72;57065.47;6133460;23;20017;-85
2023/07/29 09:08:53;;;;;;;3.50;1.30;;;22.60;99.90;;;-144.05;56.98;57086.72;6133940;23;20009;-86
2023/07/29 09:11:20;;;;;;;1.55;1.20;;;22.50;99.90;;;-144.05;57.13;57086.72;6126289;23;20101;-84
2023/07/29 09:13:46;;;;;;;1.65;1.55;;;22.60;99.90;;;-144.05;57.72;57069.72;6130711;23;20081;-85
2023/07/29 09:16:13;;;;;;;1.48;1.13;;;23.00;99.90;;;-144.05;52.96;57133.44;6126688;23;20036;-84
2023/07/29 09:18:39;;;;;;;1.92;1.27;;;23.60;99.90;;;-144.05;51.21;57103.72;6132531;23;20009;-85
2023/07/29 09:21:06;;;;;;;1.80;1.13;;;24.10;99.90;;;-144.05;52.28;57090.97;6129065;23;20033;-85
2023/07/29 09:23:43;;;;;;;1.30;1.00;;;24.00;99.90;;;-144.05;51.95;57114.34;6128098;23;20321;-86
2023/07/29 09:26:10;;;;;;;2.47;0.95;;;24.30;99.90;;;-144.05;51.13;57150.44;6133223;23;20060;-83
2023/07/29 09:28:40;;;;;;;1.00;0.82;;;24.30;99.90;;;-144.05;52.08;57114.34;6138284;23;20053;-84
2023/07/29 09:31:20;;;;;;;1.65;0.93;;;24.00;99.90;;;-144.05;52.96;57080.34;6133095;23;20006;-87
2023/07/29 09:33:49;;;;;;;3.33;1.00;;;23.20;99.90;;;-144.05;53.70;57054.88;6130233;23;20014;-86
2023/07/29 09:36:15;;;;;;;1.33;1.02;;;22.80;99.90;;;-144.05;53.69;57065.47;6133073;23;20382;-87
2023/07/29 09:38:43;;;;;;;1.50;1.20;;;23.10;99.90;;;-144.05;53.75;57063.34;6128275;23;20033;-87
2023/07/29 09:41:15;;;;;;;2.58;1.10;;;23.40;99.90;;;-144.05;51.52;57097.34;6132219;23;20064;-86
2023/07/29 09:43:41;;;;;;;1.27;1.17;;;23.50;99.90;;;-144.05;52.54;57082.47;6130929;23;20017;-87
2023/07/29 09:46:07;;;;;;;1.40;1.20;;;23.40;99.90;;;-144.05;52.78;57086.72;6103811;23;20101;-85
2023/07/29 09:48:38;;;;;;;1.63;1.40;;;23.20;99.90;;;-144.05;54.01;57097.34;6138226;23;20018;-85
2023/07/29 09:51:15;;;;;;;4.25;1.27;;;23.30;99.90;;;-144.05;52.87;57086.72;6132955;23;20017;-85
2023/07/29 09:53:52;;;;;;;3.75;1.25;;;23.30;99.90;;;-144.05;52.42;57086.72;6131563;23;20451;-84
2023/07/29 09:56:26;;;;;;;2.20;1.08;;;23.40;99.90;;;-144.05;50.76;57105.84;6135707;23;20014;-86
2023/07/29 09:58:55;;;;;;;1.92;1.00;;;23.60;99.90;;;-144.05;51.16;57080.34;6134208;23;20001;-85
2023/07/29 10:01:22;;;;;;;3.72;1.10;;;23.70;99.90;;;-144.05;51.33;57099.47;6135923;23;20097;-85
2023/07/29 10:03:50;;;;;;;2.35;1.05;;;24.40;99.90;;;-144.05;50.62;57122.84;6130175;23;20085;-84
2023/07/29 10:06:18;;;;;;;1.02;0.85;;;24.40;99.90;;;-144.05;49.39;57097.34;6132260;23;20061;-86
2023/07/29 10:08:45;;;;;;;1.13;0.80;;;24.90;99.90;;;-144.05;50.44;57139.81;6134836;23;20097;-86